createdAt,value
2022-12-04T00:00:27.639Z,103039.88
2022-12-04T00:03:15.510Z,103038.13
2022-12-04T00:06:12.517Z,103043.09
2022-12-04T00:09:00.339Z,103035.47
2022-12-04T00:11:48.277Z,103028.66
2022-12-04T00:14:54.530Z,103034.41
2022-12-04T00:17:48.252Z,103036.03
2022-12-04T00:20:39.466Z,103042.75
2022-12-04T00:23:27.206Z,103039.34
2022-12-04T00:26:17.669Z,103037.59
2022-12-04T00:29:05.478Z,103046.78
2022-12-04T00:31:53.213Z,103035.72
2022-12-04T00:34:41.033Z,103044.16
2022-12-04T00:37:28.727Z,103042.41
2022-12-04T00:40:16.517Z,103047.41
2022-12-04T00:43:04.270Z,103042.28
2022-12-04T00:45:52.258Z,103038.03
2022-12-04T00:48:41.014Z,103032.94
2022-12-04T00:51:29.033Z,103039.66
2022-12-04T00:54:17.657Z,103041.28
2022-12-04T00:57:05.347Z,103049.69
2022-12-04T00:59:53.105Z,103052.13
2022-12-04T01:02:41.015Z,103052.13
2022-12-04T01:05:28.782Z,103057.88
2022-12-04T01:08:16.623Z,103050.22
2022-12-04T01:11:07.114Z,103052.75
2022-12-04T01:13:55.322Z,103045.94
2022-12-04T01:16:43.076Z,103044.22
2022-12-04T01:19:30.676Z,103047.63
2022-12-04T01:22:18.459Z,103060.25
2022-12-04T01:25:07.299Z,103057.66
2022-12-04T01:27:55.041Z,103055.94
2022-12-04T01:30:42.721Z,103049.09
2022-12-04T01:33:31.566Z,103052.50
2022-12-04T01:36:23.198Z,103044.91
2022-12-04T01:39:10.865Z,103049.88
2022-12-04T01:41:59.144Z,103049.81
2022-12-04T01:45:27.272Z,103059.09
2022-12-04T01:48:37.885Z,103063.13
2022-12-04T01:51:30.629Z,103058.81
2022-12-04T01:54:37.369Z,103052.00
2022-12-04T01:57:28.091Z,103059.53
2022-12-04T02:00:18.021Z,103062.03
2022-12-04T02:03:06.059Z,103061.13
2022-12-04T02:05:53.859Z,103059.41
2022-12-04T02:08:41.687Z,103059.34
2022-12-04T02:11:39.056Z,103059.34
2022-12-04T02:14:41.656Z,103055.88
2022-12-04T02:17:38.137Z,103053.16
2022-12-04T02:20:32.365Z,103058.91
2022-12-04T02:23:41.146Z,103062.16
2022-12-04T02:26:53.597Z,103068.06
2022-12-04T02:29:55.901Z,103060.44
2022-12-04T02:32:51.552Z,103070.50
2022-12-04T02:36:00.758Z,103062.94
2022-12-04T02:38:55.635Z,103067.25
2022-12-04T02:41:55.510Z,103066.34
2022-12-04T02:44:47.518Z,103067.84
2022-12-04T02:47:38.086Z,103070.34
2022-12-04T02:50:27.961Z,103067.72
2022-12-04T02:53:20.003Z,103070.19
2022-12-04T02:56:16.518Z,103073.47
2022-12-04T02:59:12.841Z,103071.78
2022-12-04T03:02:07.489Z,103071.78
2022-12-04T03:04:57.770Z,103067.50
2022-12-04T03:07:54.256Z,103070.88
2022-12-04T03:10:46.309Z,103077.53
2022-12-04T03:13:47.535Z,103081.72
2022-12-04T03:16:41.685Z,103086.78
2022-12-04T03:19:56.748Z,103072.41
2022-12-04T03:22:49.635Z,103080.69
2022-12-04T03:25:45.967Z,103074.78
2022-12-04T03:28:38.858Z,103075.56
2022-12-04T03:31:36.787Z,103071.19
2022-12-04T03:34:34.930Z,103067.75
2022-12-04T03:37:48.381Z,103078.72
2022-12-04T03:40:49.480Z,103086.22
2022-12-04T03:43:54.210Z,103083.59
2022-12-04T03:46:51.425Z,103086.09
2022-12-04T03:50:02.971Z,103090.28
2022-12-04T03:53:09.650Z,103095.22
2022-12-04T03:56:28.926Z,103092.72
2022-12-04T03:59:24.830Z,103101.72
2022-12-04T04:02:17.952Z,103094.84
2022-12-04T04:05:08.890Z,103103.25
2022-12-04T04:08:22.049Z,103094.75
2022-12-04T04:11:12.466Z,103104.84
2022-12-04T04:14:31.684Z,103103.97
2022-12-04T04:17:43.350Z,103100.50
2022-12-04T04:20:58.108Z,103098.69
2022-12-04T04:24:09.357Z,103109.66
2022-12-04T04:26:58.862Z,103107.22
2022-12-04T04:29:52.097Z,103111.47
2022-12-04T04:32:50.885Z,103101.41
2022-12-04T04:36:02.888Z,103110.81
2022-12-04T04:39:07.658Z,103109.22
2022-12-04T04:42:25.134Z,103117.75
2022-12-04T04:45:30.497Z,103123.75
2022-12-04T04:48:33.219Z,103127.19
2022-12-04T04:51:21.313Z,103123.88
2022-12-04T04:54:11.975Z,103119.72
2022-12-04T04:56:59.665Z,103138.22
2022-12-04T04:59:47.334Z,103128.97
2022-12-04T05:02:35.073Z,103132.34
2022-12-04T05:05:22.781Z,103120.63
2022-12-04T05:08:10.489Z,103123.19
2022-12-04T05:10:58.293Z,103127.28
2022-12-04T05:13:47.436Z,103142.34
2022-12-04T05:16:35.451Z,103132.22
2022-12-04T05:19:41.526Z,103134.72
2022-12-04T05:22:32.016Z,103136.28
2022-12-04T05:25:19.646Z,103125.22
2022-12-04T05:28:07.298Z,103131.09
2022-12-04T05:30:59.913Z,103139.38
2022-12-04T05:33:47.614Z,103136.66
2022-12-04T05:36:35.244Z,103137.38
2022-12-04T05:39:22.820Z,103143.97
2022-12-04T05:42:10.635Z,103145.50
2022-12-04T05:44:58.344Z,103147.06
2022-12-04T05:47:46.040Z,103151.22
2022-12-04T05:50:33.668Z,103151.31
2022-12-04T05:53:21.269Z,103147.09
2022-12-04T05:56:09.139Z,103144.63
2022-12-04T05:58:56.768Z,103149.91
2022-12-04T06:01:45.091Z,103160.22
2022-12-04T06:04:32.745Z,103155.28
2022-12-04T06:07:20.377Z,103153.03
2022-12-04T06:10:08.369Z,103153.19
2022-12-04T06:12:57.762Z,103158.41
2022-12-04T06:15:45.383Z,103155.03
2022-12-04T06:18:32.981Z,103150.09
2022-12-04T06:21:21.845Z,103157.00
2022-12-04T06:24:13.899Z,103148.75
2022-12-04T06:27:26.622Z,103154.69
2022-12-04T06:30:09.636Z,103154.06
2022-12-04T06:32:57.238Z,103150.06
2022-12-04T06:35:44.847Z,103158.59
2022-12-04T06:38:33.152Z,103157.88
2022-12-04T06:41:34.642Z,103152.88
2022-12-04T06:45:01.037Z,103160.53
2022-12-04T06:48:23.044Z,103161.50
2022-12-04T06:51:20.848Z,103163.25
2022-12-04T06:54:09.770Z,103157.31
2022-12-04T06:57:00.165Z,103165.88
2022-12-04T06:59:50.650Z,103151.50
2022-12-04T07:02:38.727Z,103169.59
2022-12-04T07:05:27.875Z,103171.56
2022-12-04T07:08:16.292Z,103159.75
2022-12-04T07:11:04.308Z,103162.38
2022-12-04T07:13:52.691Z,103157.34
2022-12-04T07:16:42.374Z,103180.22
2022-12-04T07:19:30.334Z,103176.09
2022-12-04T07:22:18.052Z,103182.94
2022-12-04T07:25:09.228Z,103184.84
2022-12-04T07:28:09.199Z,103174.00
2022-12-04T07:30:59.285Z,103189.44
2022-12-04T07:33:50.852Z,103191.34
2022-12-04T07:36:39.863Z,103180.47
2022-12-04T07:39:28.529Z,103192.38
2022-12-04T07:42:35.239Z,103181.34
2022-12-04T07:45:23.225Z,103192.53
2022-12-04T07:48:11.014Z,103198.75
2022-12-04T07:51:11.635Z,103179.34
2022-12-04T07:54:04.148Z,103197.06
2022-12-04T07:57:01.612Z,103191.13
2022-12-04T07:59:55.581Z,103189.44
2022-12-04T08:02:53.104Z,103192.66
2022-12-04T08:05:40.904Z,103200.31
2022-12-04T08:08:28.830Z,103188.59
2022-12-04T08:11:20.058Z,103196.31
2022-12-04T08:14:11.157Z,103199.84
2022-12-04T08:17:01.182Z,103193.09
2022-12-04T08:19:49.078Z,103184.41
2022-12-04T08:22:36.855Z,103194.50
2022-12-04T08:25:25.497Z,103193.78
2022-12-04T08:28:13.396Z,103190.59
2022-12-04T08:31:06.768Z,103189.94
2022-12-04T08:33:57.096Z,103176.44
2022-12-04T08:36:56.513Z,103189.19
2022-12-04T08:39:44.340Z,103182.47
2022-12-04T08:42:32.635Z,103185.88
2022-12-04T08:45:20.836Z,103185.91
2022-12-04T08:48:08.623Z,103184.25
2022-12-04T08:50:56.684Z,103185.19
2022-12-04T08:53:46.319Z,103185.16
2022-12-04T08:56:35.959Z,103176.53
2022-12-04T08:59:50.836Z,103186.72
2022-12-04T09:03:00.009Z,103182.56
2022-12-04T09:05:48.512Z,103188.53
2022-12-04T09:08:37.508Z,103191.16
2022-12-04T09:11:28.221Z,103187.06
2022-12-04T09:14:16.143Z,103187.97
2022-12-04T09:17:04.171Z,103176.97
2022-12-04T09:19:55.469Z,103179.59
2022-12-04T09:23:03.304Z,103180.59
2022-12-04T09:25:52.654Z,103180.75
2022-12-04T09:28:40.621Z,103174.16
2022-12-04T09:31:29.530Z,103167.53
2022-12-04T09:34:17.658Z,103172.66
2022-12-04T09:41:00.373Z,103162.69
2022-12-04T09:44:16.422Z,103158.50
2022-12-04T09:47:20.707Z,103170.47
2022-12-04T09:50:26.027Z,103168.94
2022-12-04T09:53:22.999Z,103169.81
2022-12-04T09:56:14.538Z,103166.63
2022-12-04T09:59:15.906Z,103170.50
2022-12-04T10:02:22.551Z,103164.84
2022-12-04T10:05:22.772Z,103169.19
2022-12-04T10:08:28.731Z,103170.06
2022-12-04T10:11:46.798Z,103156.53
2022-12-04T10:14:57.012Z,103148.78
2022-12-04T10:17:56.737Z,103147.94
2022-12-04T10:21:12.118Z,103157.34
2022-12-04T10:24:27.635Z,103148.91
2022-12-04T10:27:28.543Z,103140.38
2022-12-04T10:30:21.066Z,103143.66
2022-12-04T10:33:33.154Z,103137.63
2022-12-04T10:48:44.354Z,103126.97
2022-12-04T10:51:39.522Z,103129.44
2022-12-04T10:54:37.588Z,103126.78
2022-12-04T10:57:39.246Z,103137.72
2022-12-04T11:00:35.709Z,103136.81
2022-12-04T11:50:24.203Z,103119.31
2022-12-04T11:53:58.567Z,103114.16
2022-12-04T12:01:43.553Z,103116.53
2022-12-04T12:04:50.151Z,103111.38
2022-12-04T12:08:40.028Z,103108.81
2022-12-04T12:11:52.961Z,103111.22
2022-12-04T12:15:07.059Z,103109.47
2022-12-04T12:18:31.043Z,103110.22
2022-12-04T12:22:05.359Z,103113.47
2022-12-04T12:26:17.152Z,103115.03
2022-12-04T12:29:26.555Z,103111.53
2022-12-04T12:33:27.590Z,103113.09
2022-12-04T12:37:19.949Z,103096.81
2022-12-04T12:41:41.734Z,103108.53
2022-12-04T12:50:30.513Z,103126.69
2022-12-04T12:58:46.265Z,103121.38
2022-12-04T13:02:29.515Z,103116.13
2022-12-04T13:06:08.951Z,103126.16
2022-12-04T13:09:12.647Z,103129.44
2022-12-04T13:12:09.029Z,103120.91
2022-12-04T13:14:57.604Z,103129.28
2022-12-04T13:17:48.274Z,103120.78
2022-12-04T13:20:46.876Z,103126.66
2022-12-04T13:23:55.875Z,103119.00
2022-12-04T13:26:49.829Z,103128.19
2022-12-04T13:29:41.603Z,103115.50
2022-12-04T13:32:47.952Z,103125.56
2022-12-04T13:35:53.712Z,103120.41
2022-12-04T13:39:18.111Z,103125.44
2022-12-04T13:42:53.262Z,103123.53
2022-12-04T13:46:05.797Z,103125.16
2022-12-04T13:49:30.017Z,103131.09
2022-12-04T13:52:40.268Z,103131.06
2022-12-04T13:55:40.905Z,103128.44
2022-12-04T13:58:35.026Z,103125.06
2022-12-04T14:01:43.034Z,103113.22
2022-12-04T14:04:52.867Z,103116.66
2022-12-04T14:08:05.604Z,103114.97
2022-12-04T14:11:18.657Z,103114.97
2022-12-04T14:14:58.858Z,103116.53
2022-12-04T14:18:11.438Z,103115.59
2022-12-04T14:21:06.830Z,103114.69
2022-12-04T14:23:54.477Z,103116.41
2022-12-04T14:29:59.934Z,103118.84
2022-12-04T14:32:50.566Z,103116.31
2022-12-04T14:35:47.923Z,103110.31
2022-12-04T14:38:36.016Z,103115.31
2022-12-04T14:41:27.049Z,103115.34
2022-12-04T14:44:27.709Z,103109.41
2022-12-04T14:47:29.585Z,103103.53
2022-12-04T14:50:37.520Z,103110.16
2022-12-04T14:53:36.959Z,103115.13
2022-12-04T14:56:36.669Z,103113.34
2022-12-04T14:59:40.181Z,103116.59
2022-12-04T15:02:35.000Z,103128.31
2022-12-04T15:05:27.584Z,103118.16
2022-12-04T15:08:15.413Z,103121.47
2022-12-04T15:11:25.442Z,103110.53
2022-12-04T15:14:14.008Z,103110.47
2022-12-04T15:17:04.832Z,103111.31
2022-12-04T15:19:52.467Z,103118.81
2022-12-04T15:22:40.343Z,103106.19
2022-12-04T15:25:34.973Z,103112.09
2022-12-04T15:28:34.003Z,103112.91
2022-12-04T15:31:53.465Z,103108.63
2022-12-04T15:34:49.259Z,103101.75
2022-12-04T15:37:37.226Z,103105.00
2022-12-04T15:40:29.896Z,103106.72
2022-12-04T15:43:22.563Z,103109.16
2022-12-04T15:46:26.627Z,103104.94
2022-12-04T15:49:19.393Z,103111.69
2022-12-04T15:52:10.176Z,103098.25
2022-12-04T15:55:01.731Z,103103.28
2022-12-04T15:58:12.591Z,103110.03
2022-12-04T16:01:19.983Z,103109.13
2022-12-04T16:04:19.973Z,103120.06
2022-12-04T16:07:21.620Z,103126.78
2022-12-04T16:10:23.702Z,103115.03
2022-12-04T16:13:28.313Z,103119.16
2022-12-04T16:16:21.371Z,103114.06
2022-12-04T16:19:30.342Z,103114.03
2022-12-04T16:22:23.606Z,103115.72
2022-12-04T16:25:12.705Z,103116.44
2022-12-04T16:28:01.284Z,103112.22
2022-12-04T16:30:51.615Z,103124.81
2022-12-04T16:33:40.059Z,103112.19
2022-12-04T16:36:27.672Z,103112.19
2022-12-04T16:39:15.196Z,103103.72
2022-12-04T16:42:02.761Z,103109.59
2022-12-04T16:44:51.087Z,103099.50
2022-12-04T16:47:38.669Z,103099.47
2022-12-04T16:50:27.321Z,103101.13
2022-12-04T16:53:20.323Z,103098.59
2022-12-04T16:56:08.777Z,103097.66
2022-12-04T16:58:56.342Z,103101.84
2022-12-04T17:01:46.832Z,103099.28
2022-12-04T17:04:34.531Z,103100.13
2022-12-04T17:07:22.300Z,103104.25
2022-12-04T17:10:09.996Z,103107.53
2022-12-04T17:12:57.742Z,103114.22
2022-12-04T17:15:45.588Z,103106.63
2022-12-04T17:18:33.308Z,103112.41
2022-12-04T17:21:20.955Z,103109.88
2022-12-04T17:24:08.816Z,103115.75
2022-12-04T17:26:56.538Z,103105.69
2022-12-04T17:29:44.106Z,103104.78
2022-12-04T17:32:32.537Z,103103.97
2022-12-04T17:35:20.170Z,103097.16
2022-12-04T17:38:07.836Z,103100.50
2022-12-04T17:41:02.214Z,103106.28
2022-12-04T17:43:50.331Z,103102.84
2022-12-04T17:46:38.077Z,103103.63
2022-12-04T17:49:25.699Z,103098.56
2022-12-04T17:52:13.441Z,103089.31
2022-12-04T17:55:01.081Z,103089.31
2022-12-04T17:57:48.760Z,103089.25
2022-12-04T18:00:37.093Z,103080.84
2022-12-04T18:03:24.865Z,103087.63
2022-12-04T18:06:21.533Z,103078.41
2022-12-04T18:09:11.304Z,103068.34
2022-12-04T18:12:01.553Z,103080.88
2022-12-04T18:14:49.290Z,103078.41
2022-12-04T18:17:37.158Z,103073.34
2022-12-04T18:20:24.852Z,103075.78
2022-12-04T18:23:13.799Z,103078.25
2022-12-04T18:26:01.616Z,103075.69
2022-12-04T18:28:49.704Z,103080.69
2022-12-04T18:31:38.252Z,103072.25
2022-12-04T18:34:26.182Z,103071.38
2022-12-04T18:37:13.813Z,103072.19
2022-12-04T18:40:06.285Z,103074.59
2022-12-04T18:42:54.614Z,103073.72
2022-12-04T18:45:44.940Z,103071.91
2022-12-04T18:49:03.391Z,103067.72
2022-12-04T18:51:51.023Z,103070.97
2022-12-04T18:54:39.060Z,103074.34
2022-12-04T18:57:26.658Z,103065.88
2022-12-04T19:00:14.541Z,103067.44
2022-12-04T19:03:04.582Z,103063.22
2022-12-04T19:05:55.042Z,103061.44
2022-12-04T19:08:45.790Z,103060.53
2022-12-04T19:11:34.080Z,103050.44
2022-12-04T19:14:23.680Z,103058.78
2022-12-04T19:17:11.758Z,103053.72
2022-12-04T19:19:59.568Z,103058.72
2022-12-04T19:22:47.259Z,103062.81
2022-12-04T19:25:34.993Z,103055.25
2022-12-04T19:28:23.124Z,103060.19
2022-12-04T19:31:18.679Z,103061.00
2022-12-04T19:34:06.689Z,103052.50
2022-12-04T19:36:56.618Z,103055.81
2022-12-04T19:39:44.651Z,103054.91
2022-12-04T19:42:32.351Z,103051.53
2022-12-04T19:45:19.968Z,103049.81
2022-12-04T19:48:07.518Z,103051.44
2022-12-04T19:50:55.164Z,103041.38
2022-12-04T19:53:43.536Z,103046.31
2022-12-04T19:56:33.508Z,103038.75
2022-12-04T19:59:21.180Z,103047.13
2022-12-04T20:02:11.765Z,103047.91
2022-12-04T20:04:59.388Z,103054.66
2022-12-04T20:07:47.161Z,103052.13
2022-12-04T20:10:35.848Z,103040.25
2022-12-04T20:13:23.408Z,103044.50
2022-12-04T20:16:13.525Z,103042.00
2022-12-04T20:19:02.791Z,103050.38
2022-12-04T20:21:56.110Z,103041.84
2022-12-04T20:24:46.667Z,103031.72
2022-12-04T20:27:34.236Z,103041.00
2022-12-04T20:30:22.428Z,103039.34
2022-12-04T20:33:10.052Z,103037.63
2022-12-04T20:36:00.419Z,103039.25
2022-12-04T20:38:49.417Z,103033.28
2022-12-04T20:41:37.672Z,103049.22
2022-12-04T20:44:25.216Z,103044.19
2022-12-04T20:47:12.819Z,103044.19
2022-12-04T20:50:00.413Z,103037.50
2022-12-04T20:52:48.035Z,103041.72
2022-12-04T20:55:35.659Z,103038.31
2022-12-04T20:58:23.527Z,103034.94
2022-12-04T21:01:13.537Z,103038.31
2022-12-04T21:04:01.750Z,103045.81
2022-12-04T21:06:49.565Z,103045.81
2022-12-04T21:09:37.318Z,103035.75
2022-12-04T21:12:43.551Z,103040.78
2022-12-04T21:15:49.672Z,103035.69
2022-12-04T21:18:37.252Z,103043.25
2022-12-04T21:21:26.833Z,103032.34
2022-12-04T21:24:16.813Z,103035.75
2022-12-04T21:27:09.239Z,103033.25
2022-12-04T21:29:57.723Z,103034.91
2022-12-04T21:32:45.634Z,103029.84
2022-12-04T21:35:33.223Z,103026.47
2022-12-04T21:38:20.805Z,103023.16
2022-12-04T21:41:09.561Z,103018.16
2022-12-04T21:43:57.188Z,103008.09
2022-12-04T21:46:45.538Z,103002.31
2022-12-04T21:49:33.213Z,103005.66
2022-12-04T21:52:21.823Z,102998.13
2022-12-04T21:55:09.646Z,102998.97
2022-12-04T21:57:57.169Z,102993.97
2022-12-04T22:00:45.064Z,102996.53
2022-12-04T22:03:32.620Z,103001.63
2022-12-04T22:06:21.662Z,103006.69
2022-12-04T22:09:10.833Z,102992.47
2022-12-04T22:11:58.462Z,102985.72
2022-12-04T22:14:46.272Z,102987.44
2022-12-04T22:17:33.930Z,102984.06
2022-12-04T22:20:22.799Z,102985.81
2022-12-04T22:23:11.136Z,102985.81
2022-12-04T22:26:14.430Z,102965.69
2022-12-04T22:29:11.199Z,102966.50
2022-12-04T22:32:10.172Z,102969.91
2022-12-04T22:34:57.786Z,102958.19
2022-12-04T22:37:46.072Z,102967.44
2022-12-04T22:40:33.700Z,102965.84
2022-12-04T22:43:21.350Z,102965.09
2022-12-04T22:46:10.665Z,102960.06
2022-12-04T22:48:59.333Z,102966.09
2022-12-04T22:51:46.932Z,102959.47
2022-12-04T22:54:34.639Z,102948.56
2022-12-04T22:57:22.558Z,102952.84
2022-12-04T23:00:10.690Z,102946.97
2022-12-04T23:02:58.327Z,102945.28
2022-12-04T23:05:46.008Z,102957.88
2022-12-04T23:08:33.621Z,102952.00
2022-12-04T23:11:22.244Z,102943.72
2022-12-04T23:14:13.341Z,102947.97
2022-12-04T23:17:01.281Z,102953.06
2022-12-04T23:19:48.908Z,102946.34
2022-12-04T23:22:36.642Z,102943.84
2022-12-04T23:25:24.581Z,102949.78
2022-12-04T23:28:12.202Z,102951.44
2022-12-04T23:31:00.093Z,102947.25
2022-12-04T23:33:47.804Z,102945.56
2022-12-04T23:36:35.443Z,102935.47
2022-12-04T23:39:23.121Z,102939.59
2022-12-04T23:42:10.723Z,102934.50
2022-12-04T23:44:58.382Z,102930.13
2022-12-04T23:47:47.506Z,102925.84
2022-12-04T23:50:35.736Z,102932.38
2022-12-04T23:53:23.587Z,102923.81
2022-12-04T23:56:24.136Z,102920.38
2022-12-04T23:59:11.731Z,102918.56
